Time;durP1;ratioP1;P1;durP2;ratioP2;P2;SDS_P1;SDS_P2;PMS_P1;PMS_P2;Temp;Humidity;BMP_temperature;BMP_pressure;BME280_temperature;BME280_humidity;BME280_pressure;Samples;Min_cycle;Max_cycle;Signal;HPM_P1;HPM_P2
2020/12/31 00:02:11;;;;;;;11.95;7.32;;;6.50;59.90;;;;;;5067650;28;20033;-69
2020/12/31 00:04:37;;;;;;;12.88;7.90;;;6.40;59.90;;;;;;5054815;28;20520;-70
2020/12/31 00:07:04;;;;;;;10.45;7.07;;;6.40;60.00;;;;;;5054796;28;20035;-69
2020/12/31 00:09:30;;;;;;;11.60;6.57;;;6.30;59.90;;;;;;5054532;28;20024;-69
2020/12/31 00:11:56;;;;;;;12.02;6.65;;;6.20;59.90;;;;;;5054519;28;20021;-69
2020/12/31 00:14:22;;;;;;;13.18;6.40;;;6.20;60.00;;;;;;5054719;28;20025;-70
2020/12/31 00:16:47;;;;;;;22.80;11.85;;;6.20;60.10;;;;;;5054920;28;20025;-70
2020/12/31 00:19:13;;;;;;;20.30;11.30;;;6.10;60.20;;;;;;5054480;28;20067;-69
2020/12/31 00:21:39;;;;;;;17.38;9.98;;;6.00;60.20;;;;;;5056762;28;20474;-70
2020/12/31 00:24:06;;;;;;;13.98;8.02;;;6.00;60.30;;;;;;5052994;28;20099;-70
2020/12/31 00:26:31;;;;;;;13.45;8.65;;;6.00;60.50;;;;;;5053039;28;20055;-70
2020/12/31 00:28:57;;;;;;;14.63;8.43;;;6.00;60.70;;;;;;5054653;28;20056;-70
2020/12/31 00:31:23;;;;;;;14.38;8.75;;;6.00;61.00;;;;;;5054268;28;20102;-69
2020/12/31 00:33:49;;;;;;;13.98;7.47;;;5.90;61.20;;;;;;5054219;28;20029;-70
2020/12/31 00:36:14;;;;;;;15.35;8.95;;;6.00;61.40;;;;;;5052815;28;20020;-69
2020/12/31 00:38:40;;;;;;;12.80;7.68;;;6.00;61.60;;;;;;5054208;28;20025;-69
2020/12/31 00:41:07;;;;;;;14.73;8.13;;;6.00;61.70;;;;;;5054708;28;20382;-70
2020/12/31 00:43:34;;;;;;;13.63;7.20;;;6.10;61.90;;;;;;5066523;28;20028;-70
2020/12/31 00:45:59;;;;;;;22.50;12.70;;;6.20;62.00;;;;;;5068052;28;20384;-70
2020/12/31 00:48:25;;;;;;;18.65;11.15;;;6.20;62.10;;;;;;5054439;28;20028;-70
2020/12/31 00:50:51;;;;;;;18.35;11.55;;;6.30;62.20;;;;;;5054117;28;20021;-70
2020/12/31 00:53:16;;;;;;;16.73;9.93;;;6.30;62.10;;;;;;5057538;28;20025;-70
2020/12/31 00:55:42;;;;;;;14.98;8.55;;;6.40;62.10;;;;;;5054017;28;20485;-70
2020/12/31 00:58:09;;;;;;;14.63;8.88;;;6.50;62.10;;;;;;5053868;28;20021;-70
2020/12/31 01:00:36;;;;;;;16.38;10.18;;;6.60;61.90;;;;;;5053905;28;20031;-70
2020/12/31 01:03:05;;;;;;;15.95;9.88;;;6.60;61.80;;;;;;5058508;28;20029;-70
2020/12/31 01:05:31;;;;;;;13.57;8.85;;;6.70;61.80;;;;;;5053098;28;20025;-70
2020/12/31 01:07:57;;;;;;;13.75;8.20;;;6.70;61.60;;;;;;5068147;28;20077;-70
2020/12/31 01:10:22;;;;;;;13.65;8.38;;;6.80;61.40;;;;;;5070182;28;20032;-70
2020/12/31 01:12:48;;;;;;;12.57;8.13;;;6.80;61.30;;;;;;5070191;28;20381;-70
2020/12/31 01:15:14;;;;;;;13.45;8.38;;;6.80;61.10;;;;;;5072566;28;20040;-71
2020/12/31 01:17:40;;;;;;;13.95;8.52;;;6.80;60.90;;;;;;5057182;28;20032;-70
2020/12/31 01:20:07;;;;;;;13.15;7.60;;;6.80;60.90;;;;;;5052566;28;20028;-70
2020/12/31 01:22:33;;;;;;;10.90;7.50;;;6.90;61.00;;;;;;5052234;28;20078;-70
2020/12/31 01:24:59;;;;;;;13.57;8.35;;;6.90;60.90;;;;;;5052684;28;20029;-69
2020/12/31 01:27:24;;;;;;;10.38;7.00;;;6.90;60.90;;;;;;5052634;28;20048;-69
2020/12/31 01:29:50;;;;;;;12.07;7.28;;;6.90;60.80;;;;;;5052674;28;20488;-70
2020/12/31 01:32:20;;;;;;;11.48;6.28;;;6.90;60.60;;;;;;5052437;28;20032;-69
2020/12/31 01:34:46;;;;;;;11.18;7.57;;;6.90;60.50;;;;;;5051308;28;20108;-70
2020/12/31 01:37:16;;;;;;;12.35;8.32;;;6.90;60.20;;;;;;5052536;28;20117;-70
2020/12/31 01:39:42;;;;;;;13.85;8.15;;;6.80;60.10;;;;;;5052584;28;20094;-70
2020/12/31 01:42:08;;;;;;;10.48;7.18;;;6.80;59.90;;;;;;5055985;28;20024;-70
2020/12/31 01:44:34;;;;;;;11.02;6.55;;;6.70;59.80;;;;;;5052323;28;20094;-70
2020/12/31 01:47:00;;;;;;;13.60;7.25;;;6.60;60.30;;;;;;5051866;28;20028;-70
2020/12/31 01:49:34;;;;;;;10.10;6.72;;;6.60;59.70;;;;;;5051103;28;20017;-70
2020/12/31 01:52:01;;;;;;;10.40;6.38;;;6.50;59.70;;;;;;5052390;28;20021;-70
2020/12/31 01:54:28;;;;;;;10.57;5.60;;;6.40;59.60;;;;;;5051106;28;20556;-69
2020/12/31 01:56:55;;;;;;;12.73;7.20;;;6.30;59.60;;;;;;5052344;28;20025;-70
2020/12/31 01:59:21;;;;;;;14.27;8.40;;;6.20;59.60;;;;;;5052394;28;20029;-70
2020/12/31 02:01:48;;;;;;;14.98;7.90;;;6.10;59.70;;;;;;5052185;28;20025;-70
2020/12/31 02:04:14;;;;;;;14.57;8.75;;;6.00;59.70;;;;;;5052196;28;20471;-70
2020/12/31 02:06:41;;;;;;;11.85;7.80;;;5.90;60.00;;;;;;5052648;28;20032;-70
2020/12/31 02:09:07;;;;;;;12.15;7.90;;;5.90;60.10;;;;;;5072331;28;20017;-70
2020/12/31 02:11:32;;;;;;;11.15;7.28;;;5.80;60.20;;;;;;5068580;28;20386;-70
2020/12/31 02:13:58;;;;;;;11.43;6.80;;;5.70;60.30;;;;;;5050920;28;20444;-70
2020/12/31 02:16:26;;;;;;;12.85;7.85;;;5.60;60.30;;;;;;5052002;28;20436;-69
2020/12/31 02:18:57;;;;;;;12.57;7.40;;;5.60;60.40;;;;;;5052156;28;20122;-70
2020/12/31 02:21:31;;;;;;;14.07;8.18;;;5.50;60.40;;;;;;5052359;28;20026;-71
2020/12/31 02:23:58;;;;;;;14.57;8.55;;;5.40;60.50;;;;;;5067748;28;20041;-70
2020/12/31 02:26:26;;;;;;;12.48;6.80;;;5.40;60.70;;;;;;5072164;28;20021;-70
2020/12/31 02:28:53;;;;;;;13.00;7.25;;;5.30;60.70;;;;;;5072189;28;20378;-70
2020/12/31 02:31:19;;;;;;;9.02;6.28;;;5.20;60.90;;;;;;5071836;28;20481;-70
2020/12/31 02:33:48;;;;;;;12.55;7.15;;;5.20;61.20;;;;;;5050798;28;20079;-70
2020/12/31 02:36:14;;;;;;;16.45;9.82;;;5.20;61.70;;;;;;5051993;28;20104;-70
2020/12/31 02:38:41;;;;;;;14.38;8.45;;;5.20;62.30;;;;;;5052047;28;20419;-70
2020/12/31 02:41:06;;;;;;;14.95;8.55;;;5.20;62.70;;;;;;5051858;28;20040;-70
2020/12/31 02:43:33;;;;;;;14.93;8.60;;;5.20;62.80;;;;;;5051811;28;20029;-70
2020/12/31 02:45:59;;;;;;;12.77;8.07;;;5.30;62.90;;;;;;5051938;28;20100;-70
2020/12/31 02:48:24;;;;;;;13.30;7.53;;;5.30;62.80;;;;;;5051908;28;20561;-70
2020/12/31 02:50:50;;;;;;;12.65;7.35;;;5.30;62.50;;;;;;5051962;28;20098;-70
2020/12/31 02:53:16;;;;;;;16.73;7.78;;;5.40;62.20;;;;;;5051623;28;20036;-70
2020/12/31 02:55:42;;;;;;;13.13;8.27;;;5.30;61.90;;;;;;5051829;28;20379;-70
2020/12/31 02:58:07;;;;;;;13.65;7.97;;;5.30;61.80;;;;;;5051867;28;20525;-70
2020/12/31 03:00:33;;;;;;;13.63;8.25;;;5.30;61.70;;;;;;5053033;28;20029;-70
2020/12/31 03:02:59;;;;;;;13.32;7.75;;;5.20;61.60;;;;;;5056980;28;20033;-70
2020/12/31 03:05:25;;;;;;;11.68;7.07;;;5.20;61.70;;;;;;5054978;28;20052;-70
2020/12/31 03:07:50;;;;;;;11.57;6.65;;;5.10;61.60;;;;;;5054519;28;20496;-70
2020/12/31 03:10:16;;;;;;;12.38;7.22;;;5.10;61.70;;;;;;5054824;28;20054;-70
2020/12/31 03:12:42;;;;;;;10.00;6.57;;;5.00;61.70;;;;;;5054638;28;20603;-69
2020/12/31 03:15:12;;;;;;;9.95;6.47;;;5.00;61.80;;;;;;5065418;28;20029;-70
2020/12/31 03:17:38;;;;;;;11.90;7.57;;;5.00;62.00;;;;;;5053782;28;20091;-70
2020/12/31 03:20:05;;;;;;;11.00;6.53;;;4.90;62.30;;;;;;5055025;28;20367;-70
2020/12/31 03:22:31;;;;;;;11.55;6.93;;;5.00;62.60;;;;;;5053374;28;20410;-70
2020/12/31 03:24:57;;;;;;;14.10;7.32;;;5.00;62.80;;;;;;5054898;28;20028;-69
2020/12/31 03:27:22;;;;;;;13.88;8.30;;;5.00;62.80;;;;;;5054866;28;20029;-70
2020/12/31 03:29:48;;;;;;;14.52;8.15;;;5.00;62.70;;;;;;5054794;28;20526;-70
2020/12/31 03:32:14;;;;;;;11.07;7.32;;;5.10;62.60;;;;;;5053250;28;20409;-70
2020/12/31 03:34:40;;;;;;;17.20;7.75;;;5.00;62.20;;;;;;5053332;28;20123;-70
2020/12/31 03:37:06;;;;;;;13.07;7.88;;;5.00;62.70;;;;;;5054564;28;20482;-70
2020/12/31 03:39:32;;;;;;;12.00;7.10;;;5.00;61.90;;;;;;5054730;28;20060;-70
2020/12/31 03:41:57;;;;;;;11.48;7.35;;;4.90;61.80;;;;;;5053214;28;20028;-70
2020/12/31 03:44:23;;;;;;;12.73;7.95;;;4.90;61.80;;;;;;5054549;28;20025;-70
2020/12/31 03:46:49;;;;;;;12.52;7.95;;;4.90;61.80;;;;;;5054457;28;20028;-69
2020/12/31 03:49:15;;;;;;;14.02;8.15;;;4.80;61.80;;;;;;5053237;28;20035;-70
2020/12/31 03:51:41;;;;;;;11.35;7.68;;;4.80;61.90;;;;;;5054256;28;20017;-70
2020/12/31 03:54:06;;;;;;;13.25;8.05;;;4.70;62.10;;;;;;5054364;28;20542;-69
2020/12/31 03:56:32;;;;;;;12.70;8.25;;;4.70;62.40;;;;;;5054285;28;20116;-70
2020/12/31 03:58:58;;;;;;;14.77;8.90;;;4.70;62.80;;;;;;5054299;28;20104;-70
2020/12/31 04:01:30;;;;;;;15.02;8.55;;;4.70;63.10;;;;;;5053109;28;20426;-70
2020/12/31 04:03:56;;;;;;;12.88;7.50;;;4.70;63.50;;;;;;5054063;28;20037;-70
2020/12/31 04:06:22;;;;;;;14.60;7.93;;;4.80;63.50;;;;;;5054137;28;20542;-70
2020/12/31 04:08:48;;;;;;;14.02;8.50;;;4.80;63.50;;;;;;5054059;28;20029;-69
2020/12/31 04:11:14;;;;;;;13.70;7.60;;;4.90;63.60;;;;;;5053569;28;20029;-70
2020/12/31 04:13:39;;;;;;;12.48;7.40;;;4.90;63.50;;;;;;5053822;28;20494;-70
2020/12/31 04:16:05;;;;;;;13.52;8.45;;;5.00;63.40;;;;;;5070640;28;20496;-70
2020/12/31 04:18:31;;;;;;;14.63;7.68;;;5.00;63.30;;;;;;5073903;28;20032;-70
2020/12/31 04:20:57;;;;;;;14.50;8.10;;;5.10;63.10;;;;;;5073836;28;20474;-70
2020/12/31 04:23:23;;;;;;;12.20;7.70;;;5.10;63.10;;;;;;5053940;28;20095;-70
2020/12/31 04:25:49;;;;;;;10.00;6.80;;;5.10;63.00;;;;;;5053638;28;20562;-70
2020/12/31 04:28:15;;;;;;;10.63;7.13;;;5.10;63.00;;;;;;5053739;28;20429;-70
2020/12/31 04:30:44;;;;;;;10.82;7.85;;;5.10;63.10;;;;;;5053581;28;20025;-69
2020/12/31 04:33:10;;;;;;;11.18;7.47;;;5.10;63.20;;;;;;5053464;28;20064;-70
2020/12/31 04:35:35;;;;;;;11.73;7.40;;;5.20;63.30;;;;;;5053642;28;20085;-70
2020/12/31 04:38:01;;;;;;;13.80;7.45;;;5.20;63.40;;;;;;5053377;28;20440;-69
2020/12/31 04:40:27;;;;;;;13.52;8.00;;;5.20;63.60;;;;;;5053415;28;20512;-70
2020/12/31 04:42:52;;;;;;;13.32;7.65;;;5.30;63.70;;;;;;5053324;28;20113;-70
2020/12/31 04:45:20;;;;;;;9.70;6.85;;;5.30;63.70;;;;;;5072811;28;20086;-70
2020/12/31 04:48:04;;;;;;;11.35;8.32;;;5.40;63.70;;;;;;5073274;28;20017;-70
2020/12/31 04:50:33;;;;;;;15.32;9.35;;;5.40;63.70;;;;;;5073245;28;20397;-70
2020/12/31 04:53:05;;;;;;;12.00;7.72;;;5.50;63.70;;;;;;5071861;28;20051;-70
2020/12/31 04:55:38;;;;;;;12.18;8.15;;;5.50;63.70;;;;;;5053118;28;20029;-69
2020/12/31 04:58:03;;;;;;;13.18;7.55;;;5.60;63.70;;;;;;5053259;28;20067;-70
2020/12/31 05:00:29;;;;;;;15.60;10.65;;;5.70;63.70;;;;;;5053333;28;20060;-70
2020/12/31 05:02:55;;;;;;;17.40;9.90;;;5.80;63.60;;;;;;5055355;28;20060;-70
2020/12/31 05:05:21;;;;;;;20.75;10.15;;;5.80;63.30;;;;;;5053099;28;20539;-70
2020/12/31 05:07:51;;;;;;;30.48;14.20;;;5.90;63.10;;;;;;5052014;28;20025;-70
2020/12/31 05:10:17;;;;;;;21.27;10.07;;;5.90;62.70;;;;;;5052279;28;20040;-70
2020/12/31 05:12:42;;;;;;;13.43;8.20;;;5.90;62.30;;;;;;5052220;28;20489;-69
2020/12/31 05:15:09;;;;;;;12.38;7.25;;;5.90;62.00;;;;;;5051814;28;20031;-69
2020/12/31 05:17:35;;;;;;;12.57;7.05;;;5.80;61.70;;;;;;5052846;28;20381;-70
2020/12/31 05:20:14;;;;;;;13.23;8.15;;;5.80;61.40;;;;;;5052722;28;20033;-70
2020/12/31 05:22:40;;;;;;;12.43;7.65;;;5.70;61.30;;;;;;5051815;28;20044;-70
2020/12/31 05:25:06;;;;;;;14.55;8.10;;;5.70;61.20;;;;;;5052481;28;20543;-70
2020/12/31 05:27:32;;;;;;;11.30;7.53;;;5.50;61.10;;;;;;5052654;28;20214;-70
2020/12/31 05:30:03;;;;;;;14.00;8.98;;;5.50;61.10;;;;;;5052571;28;20479;-69
2020/12/31 05:32:34;;;;;;;14.15;8.05;;;5.40;61.20;;;;;;5052610;28;20025;-70
2020/12/31 05:35:00;;;;;;;12.10;8.27;;;5.30;61.30;;;;;;5052544;28;20079;-70
2020/12/31 05:37:28;;;;;;;13.90;9.00;;;5.20;61.40;;;;;;5052577;28;20108;-70
2020/12/31 05:40:00;;;;;;;12.15;7.13;;;5.10;61.40;;;;;;5052418;28;20025;-70
2020/12/31 05:42:27;;;;;;;12.50;8.05;;;5.10;61.50;;;;;;5052455;28;20052;-70
2020/12/31 05:45:02;;;;;;;16.77;8.90;;;5.00;61.50;;;;;;5052260;28;20025;-69
2020/12/31 05:47:28;;;;;;;12.35;7.50;;;4.90;61.60;;;;;;5052451;28;20060;-70
2020/12/31 05:49:54;;;;;;;13.07;8.55;;;4.90;61.80;;;;;;5052759;28;20049;-70
2020/12/31 05:52:36;;;;;;;14.48;9.73;;;4.80;61.80;;;;;;5052405;28;20473;-70
2020/12/31 05:55:04;;;;;;;15.20;10.02;;;4.70;62.30;;;;;;5052236;28;20098;-70
2020/12/31 05:57:47;;;;;;;12.38;7.78;;;4.70;62.70;;;;;;5050971;28;20421;-70
2020/12/31 06:00:21;;;;;;;14.52;8.57;;;4.60;62.70;;;;;;5052238;28;20033;-70
2020/12/31 06:02:53;;;;;;;10.23;7.60;;;4.60;62.70;;;;;;5052239;28;20028;-70
2020/12/31 06:05:20;;;;;;;14.23;9.48;;;4.60;62.60;;;;;;5051184;28;20072;-70
2020/12/31 06:08:07;;;;;;;13.77;9.15;;;4.50;62.70;;;;;;5051000;28;20025;-70
2020/12/31 06:10:34;;;;;;;15.60;9.60;;;4.50;62.70;;;;;;5051449;28;20041;-70
2020/12/31 06:13:05;;;;;;;14.52;9.70;;;4.50;62.80;;;;;;5052141;28;20018;-70
2020/12/31 06:15:37;;;;;;;16.55;9.57;;;4.40;62.80;;;;;;5052260;28;20025;-70
2020/12/31 06:18:05;;;;;;;14.82;8.65;;;4.40;62.90;;;;;;5052059;28;20470;-70
2020/12/31 06:20:33;;;;;;;13.52;8.48;;;4.30;62.90;;;;;;5052164;28;20390;-70
2020/12/31 06:23:07;;;;;;;18.13;10.48;;;4.30;63.00;;;;;;5051920;28;20071;-71
2020/12/31 06:25:42;;;;;;;15.48;9.95;;;4.30;63.10;;;;;;5051859;28;20041;-70
2020/12/31 06:28:12;;;;;;;16.00;9.75;;;4.30;63.30;;;;;;5052189;28;20108;-69
2020/12/31 06:30:54;;;;;;;13.15;8.50;;;4.20;63.30;;;;;;5052240;28;20067;-70
2020/12/31 06:33:33;;;;;;;15.73;10.43;;;4.20;63.30;;;;;;5052872;28;20040;-69
2020/12/31 06:36:01;;;;;;;13.02;8.13;;;4.20;63.50;;;;;;5054636;28;20029;-69
2020/12/31 06:38:37;;;;;;;12.27;8.55;;;4.10;63.50;;;;;;5066497;28;20424;-70
2020/12/31 06:41:05;;;;;;;13.32;8.13;;;4.10;63.50;;;;;;5075711;28;20090;-70
2020/12/31 06:43:36;;;;;;;14.15;8.25;;;4.10;63.50;;;;;;5072809;28;20093;-69
2020/12/31 06:46:16;;;;;;;15.13;8.70;;;4.10;63.50;;;;;;5055620;28;20033;-69
2020/12/31 06:48:42;;;;;;;14.85;9.50;;;4.00;63.50;;;;;;5054333;28;20041;-69
2020/12/31 06:51:11;;;;;;;16.98;9.82;;;4.00;63.60;;;;;;5055410;28;20131;-70
2020/12/31 06:53:37;;;;;;;15.35;9.73;;;4.00;63.60;;;;;;5055340;28;20035;-70
2020/12/31 06:56:08;;;;;;;11.88;7.80;;;3.90;63.50;;;;;;5055437;28;20437;-70
2020/12/31 06:58:34;;;;;;;14.38;8.07;;;3.90;63.50;;;;;;5055451;28;20021;-70
2020/12/31 07:01:01;;;;;;;11.23;7.38;;;3.90;63.50;;;;;;5055439;28;20537;-70
2020/12/31 07:03:42;;;;;;;15.32;10.45;;;3.90;63.50;;;;;;5055228;28;20442;-69
2020/12/31 07:06:29;;;;;;;15.90;9.90;;;3.80;63.70;;;;;;5055230;28;20025;-70
2020/12/31 07:08:57;;;;;;;19.92;11.93;;;3.80;63.90;;;;;;5055126;28;20501;-70
2020/12/31 07:11:32;;;;;;;19.88;12.07;;;3.80;63.90;;;;;;5054866;28;20536;-70
2020/12/31 07:14:00;;;;;;;15.75;9.77;;;3.80;64.10;;;;;;5055245;28;20048;-71
2020/12/31 07:16:45;;;;;;;17.17;10.38;;;3.80;64.00;;;;;;5054831;28;20029;-70
2020/12/31 07:19:12;;;;;;;16.85;10.88;;;3.80;64.10;;;;;;5054792;28;20512;-70
2020/12/31 07:21:37;;;;;;;18.33;12.15;;;3.80;64.10;;;;;;5054950;28;20489;-71
2020/12/31 07:24:23;;;;;;;26.35;15.32;;;3.80;64.20;;;;;;5070127;28;20056;-71
2020/12/31 07:26:51;;;;;;;17.55;10.90;;;3.80;64.40;;;;;;5054931;28;20021;-70
2020/12/31 07:29:30;;;;;;;17.45;10.57;;;3.80;64.30;;;;;;5054835;28;20025;-71
2020/12/31 07:31:57;;;;;;;22.95;13.38;;;3.80;64.50;;;;;;5054736;28;20096;-71
2020/12/31 07:34:31;;;;;;;21.05;11.88;;;3.80;65.40;;;;;;5054715;28;20021;-71
2020/12/31 07:37:01;;;;;;;24.90;12.55;;;3.80;65.10;;;;;;5054743;28;20039;-70
2020/12/31 07:39:27;;;;;;;18.35;9.85;;;3.90;65.60;;;;;;5069943;28;20032;-70
2020/12/31 07:42:13;;;;;;;19.17;11.27;;;3.90;64.80;;;;;;5054567;28;20036;-71
2020/12/31 07:44:52;;;;;;;17.75;11.13;;;3.90;65.00;;;;;;5053973;28;20501;-70
2020/12/31 07:47:20;;;;;;;18.27;10.35;;;3.90;65.00;;;;;;5054480;28;20471;-71
2020/12/31 07:49:48;;;;;;;15.55;9.85;;;3.90;65.00;;;;;;5054474;28;20027;-70
2020/12/31 07:52:15;;;;;;;16.48;9.02;;;4.00;65.10;;;;;;5054473;28;20513;-71
2020/12/31 07:54:40;;;;;;;18.50;9.60;;;4.00;65.10;;;;;;5054447;28;20024;-71
2020/12/31 07:57:10;;;;;;;19.73;11.10;;;4.00;65.10;;;;;;5054349;28;20558;-70
2020/12/31 07:59:44;;;;;;;33.25;16.38;;;4.10;65.30;;;;;;5054653;28;20052;-70
2020/12/31 08:02:10;;;;;;;25.95;14.73;;;4.10;65.40;;;;;;5054313;28;20033;-70
2020/12/31 08:04:36;;;;;;;23.90;12.52;;;4.20;65.50;;;;;;5054139;28;20047;-71
2020/12/31 08:07:04;;;;;;;29.33;15.07;;;4.10;65.40;;;;;;5054139;28;20013;-70
2020/12/31 08:09:30;;;;;;;24.83;12.27;;;4.20;65.50;;;;;;5053563;28;20021;-70
2020/12/31 08:11:56;;;;;;;23.85;13.43;;;4.20;65.60;;;;;;5053300;28;20017;-70
2020/12/31 08:14:23;;;;;;;22.58;11.93;;;4.30;65.70;;;;;;5054016;28;20363;-70
2020/12/31 08:16:59;;;;;;;18.05;10.38;;;4.30;65.70;;;;;;5058724;28;20071;-70
2020/12/31 08:19:26;;;;;;;17.65;10.50;;;4.30;65.60;;;;;;5064117;28;20063;-70
2020/12/31 08:21:57;;;;;;;13.20;8.40;;;4.40;65.70;;;;;;5073223;28;20362;-70
2020/12/31 08:24:24;;;;;;;17.20;8.57;;;4.40;65.60;;;;;;5056087;28;20128;-70
2020/12/31 08:26:58;;;;;;;20.27;10.30;;;4.40;65.60;;;;;;5054551;28;20017;-70
2020/12/31 08:29:34;;;;;;;17.63;11.07;;;4.50;65.60;;;;;;5062439;28;20020;-70
2020/12/31 08:32:04;;;;;;;18.27;11.23;;;4.50;65.60;;;;;;5071235;28;20020;-70
2020/12/31 08:34:36;;;;;;;13.77;8.98;;;4.50;65.50;;;;;;5065496;28;20082;-70
2020/12/31 08:37:06;;;;;;;13.85;9.35;;;4.50;65.50;;;;;;5074387;28;20036;-71
2020/12/31 08:39:32;;;;;;;14.45;8.85;;;4.60;65.50;;;;;;5069651;28;20027;-71
2020/12/31 08:42:00;;;;;;;16.10;10.18;;;4.60;65.50;;;;;;5072967;28;20028;-70
2020/12/31 08:44:27;;;;;;;14.82;9.88;;;4.60;65.50;;;;;;5069187;28;20056;-70
2020/12/31 08:46:54;;;;;;;16.85;10.00;;;4.60;65.40;;;;;;5066267;28;20024;-70
2020/12/31 08:49:26;;;;;;;13.88;9.68;;;4.70;65.40;;;;;;5074104;28;20017;-71
2020/12/31 08:51:53;;;;;;;12.70;8.23;;;4.70;65.40;;;;;;5059885;28;20537;-71
2020/12/31 08:54:20;;;;;;;12.65;8.32;;;4.80;65.50;;;;;;5053097;28;20120;-71
2020/12/31 08:56:45;;;;;;;12.52;8.70;;;4.80;65.50;;;;;;5053124;28;20842;-70
2020/12/31 08:59:13;;;;;;;14.43;9.50;;;4.90;65.30;;;;;;5053017;28;20032;-70
2020/12/31 09:01:47;;;;;;;12.65;8.77;;;4.90;65.30;;;;;;5053093;28;20078;-71
2020/12/31 09:04:20;;;;;;;11.40;8.13;;;4.90;65.30;;;;;;5052985;28;20134;-70
2020/12/31 09:06:47;;;;;;;13.30;9.45;;;5.00;65.20;;;;;;5065238;28;20017;-71
2020/12/31 09:09:19;;;;;;;11.70;8.75;;;5.00;65.10;;;;;;5072906;28;20028;-71
2020/12/31 09:12:04;;;;;;;12.77;8.75;;;5.10;65.10;;;;;;5072996;28;20096;-70
2020/12/31 09:14:33;;;;;;;13.93;10.02;;;5.10;65.10;;;;;;5071295;28;20032;-70
2020/12/31 09:16:59;;;;;;;13.40;9.25;;;5.20;65.20;;;;;;5052803;28;20108;-69
2020/12/31 09:19:26;;;;;;;19.92;9.20;;;5.20;65.20;;;;;;5052718;28;20158;-67
2020/12/31 09:21:52;;;;;;;17.65;10.63;;;5.20;65.10;;;;;;5067517;28;20028;-67
2020/12/31 09:24:19;;;;;;;15.68;9.98;;;5.30;65.20;;;;;;5073784;28;20043;-68
2020/12/31 09:26:56;;;;;;;13.30;10.05;;;5.30;65.10;;;;;;5072319;28;20485;-68
2020/12/31 09:29:23;;;;;;;15.27;10.45;;;5.40;65.10;;;;;;5073447;28;20067;-67
2020/12/31 09:31:48;;;;;;;16.52;10.70;;;5.40;65.10;;;;;;5073493;28;20020;-67
2020/12/31 09:34:15;;;;;;;14.60;10.07;;;5.50;65.20;;;;;;5073415;28;20436;-69
2020/12/31 09:36:41;;;;;;;14.43;9.40;;;5.50;65.10;;;;;;5073384;28;20477;-68
2020/12/31 09:39:07;;;;;;;15.45;10.45;;;5.60;65.10;;;;;;5073397;28;20032;-68
2020/12/31 09:41:33;;;;;;;16.20;10.50;;;5.60;65.00;;;;;;5073337;28;20111;-69
2020/12/31 09:43:59;;;;;;;15.45;10.13;;;5.70;65.00;;;;;;5073486;28;20101;-69
2020/12/31 09:46:24;;;;;;;15.70;11.07;;;5.70;64.90;;;;;;5073146;28;20016;-68
2020/12/31 09:48:50;;;;;;;16.40;11.00;;;5.80;64.80;;;;;;5073467;28;20021;-68
2020/12/31 09:51:17;;;;;;;13.48;9.95;;;5.80;64.70;;;;;;5071926;28;20050;-68
2020/12/31 09:53:43;;;;;;;15.88;10.85;;;5.80;64.60;;;;;;5073136;28;20028;-68
2020/12/31 09:56:10;;;;;;;14.40;10.43;;;5.90;64.50;;;;;;5073174;28;20032;-69
2020/12/31 09:58:36;;;;;;;15.90;10.80;;;5.90;64.40;;;;;;5073113;28;20029;-69
2020/12/31 10:01:03;;;;;;;16.42;11.20;;;6.00;64.40;;;;;;5073463;28;20023;-69
2020/12/31 10:03:28;;;;;;;16.38;11.30;;;6.00;64.20;;;;;;5071749;28;20020;-69
2020/12/31 10:05:55;;;;;;;16.88;11.68;;;6.10;64.30;;;;;;5053246;28;20032;-68
2020/12/31 10:08:21;;;;;;;19.70;12.90;;;6.10;64.20;;;;;;5052485;28;20545;-69
2020/12/31 10:10:46;;;;;;;18.92;12.50;;;6.20;64.20;;;;;;5063571;28;20107;-68
2020/12/31 10:13:12;;;;;;;18.33;12.57;;;6.20;64.20;;;;;;5073615;28;20481;-69
2020/12/31 10:15:38;;;;;;;17.35;11.95;;;6.30;64.30;;;;;;5068856;28;20025;-69
2020/12/31 10:18:04;;;;;;;17.70;12.23;;;6.40;64.30;;;;;;5068063;28;20029;-69
2020/12/31 10:20:30;;;;;;;19.58;12.60;;;6.40;64.20;;;;;;5062544;28;20151;-67
2020/12/31 10:22:56;;;;;;;23.00;15.00;;;6.50;64.20;;;;;;5066500;28;20082;-69
2020/12/31 10:25:22;;;;;;;19.70;13.63;;;6.60;64.10;;;;;;5072860;28;20039;-68
2020/12/31 10:27:47;;;;;;;24.08;14.00;;;6.70;64.00;;;;;;5056631;28;20466;-68
2020/12/31 10:30:13;;;;;;;23.25;14.02;;;6.70;63.80;;;;;;5060739;28;20028;-68
2020/12/31 10:32:39;;;;;;;19.77;13.70;;;6.80;63.60;;;;;;5076986;28;20362;-68
2020/12/31 10:35:05;;;;;;;28.05;16.85;;;6.80;63.40;;;;;;5069034;28;20025;-68
2020/12/31 10:37:31;;;;;;;34.25;20.63;;;6.90;63.40;;;;;;5056534;28;20031;-68
2020/12/31 10:39:57;;;;;;;38.08;21.70;;;6.90;63.30;;;;;;5056615;28;20516;-68
2020/12/31 10:42:23;;;;;;;28.60;19.02;;;7.00;63.20;;;;;;5056409;28;20033;-69
2020/12/31 10:44:49;;;;;;;30.85;18.38;;;7.10;63.10;;;;;;5056350;28;20064;-68
2020/12/31 10:47:15;;;;;;;37.28;20.83;;;7.10;62.90;;;;;;5056518;28;20060;-68
2020/12/31 10:49:41;;;;;;;27.55;18.25;;;7.20;62.90;;;;;;5056642;28;20032;-68
2020/12/31 10:52:06;;;;;;;27.75;18.52;;;7.20;62.90;;;;;;5056612;28;20025;-68
2020/12/31 10:54:32;;;;;;;32.42;19.98;;;7.30;62.80;;;;;;5055105;28;20053;-68
2020/12/31 10:56:58;;;;;;;27.30;18.48;;;7.40;62.70;;;;;;5060425;28;20478;-68
2020/12/31 10:59:25;;;;;;;31.23;19.85;;;7.40;62.30;;;;;;5076188;28;20028;-69
2020/12/31 11:01:51;;;;;;;31.58;19.92;;;7.40;62.20;;;;;;5076080;28;20030;-68
2020/12/31 11:04:17;;;;;;;32.70;20.77;;;7.50;62.10;;;;;;5057871;28;20032;-67
2020/12/31 11:06:43;;;;;;;32.30;21.20;;;7.50;62.10;;;;;;5056005;28;20025;-69
2020/12/31 11:09:09;;;;;;;29.42;18.73;;;7.60;62.10;;;;;;5056844;28;20036;-68
2020/12/31 11:11:37;;;;;;;31.50;18.77;;;7.60;62.00;;;;;;5056408;28;20088;-67
2020/12/31 11:14:03;;;;;;;37.92;21.73;;;7.70;62.00;;;;;;5055988;28;20044;-67
2020/12/31 11:16:28;;;;;;;32.53;21.67;;;7.70;61.80;;;;;;5057246;28;20024;-68
2020/12/31 11:18:54;;;;;;;29.63;19.80;;;7.80;61.70;;;;;;5073577;28;21636;-68
2020/12/31 11:21:20;;;;;;;37.08;24.23;;;7.80;61.90;;;;;;5060780;28;20028;-68
2020/12/31 11:23:46;;;;;;;32.55;21.00;;;7.90;62.00;;;;;;5075520;28;20092;-67
2020/12/31 11:26:26;;;;;;;32.67;20.90;;;8.00;61.90;;;;;;5062875;28;21079;-67
2020/12/31 11:28:51;;;;;;;34.10;21.40;;;8.20;61.40;;;;;;5072661;28;20103;-68
2020/12/31 11:31:28;;;;;;;28.85;17.92;;;8.20;61.20;;;;;;5069131;28;20562;-67
2020/12/31 11:33:55;;;;;;;31.35;19.80;;;8.30;60.60;;;;;;5073975;28;20112;-68
2020/12/31 11:36:24;;;;;;;30.30;18.33;;;8.40;60.30;;;;;;5065405;28;20378;-68
2020/12/31 11:38:51;;;;;;;28.85;18.58;;;8.40;60.00;;;;;;5073773;28;20381;-68
2020/12/31 11:41:17;;;;;;;23.73;16.27;;;8.40;59.70;;;;;;5088039;28;20036;-67
2020/12/31 11:43:43;;;;;;;25.98;15.48;;;8.50;59.60;;;;;;5055432;28;20024;-68
2020/12/31 11:46:09;;;;;;;22.83;15.10;;;8.50;59.30;;;;;;5055227;28;20367;-68
2020/12/31 11:48:35;;;;;;;29.23;17.50;;;8.50;59.10;;;;;;5063800;28;20032;-67
2020/12/31 11:51:02;;;;;;;24.13;15.77;;;8.50;59.10;;;;;;5059170;28;20024;-68
2020/12/31 11:53:28;;;;;;;22.52;14.85;;;8.50;58.90;;;;;;5054916;28;20096;-69
2020/12/31 11:55:54;;;;;;;25.70;15.50;;;8.60;58.70;;;;;;5062773;28;20020;-68
2020/12/31 11:58:20;;;;;;;24.42;15.02;;;8.60;58.70;;;;;;5074916;28;20488;-68
2020/12/31 12:00:46;;;;;;;23.63;14.35;;;8.60;58.50;;;;;;5065718;28;20040;-68
2020/12/31 12:03:11;;;;;;;24.20;14.82;;;8.60;58.50;;;;;;5055725;28;20100;-68
2020/12/31 12:05:37;;;;;;;28.30;15.40;;;8.60;58.40;;;;;;5072741;28;20103;-68
2020/12/31 12:08:04;;;;;;;22.17;14.20;;;8.60;58.10;;;;;;5070492;28;20019;-68
2020/12/31 12:10:31;;;;;;;24.70;13.85;;;8.60;58.30;;;;;;5062006;28;20052;-68
2020/12/31 12:12:56;;;;;;;28.33;14.55;;;8.60;58.40;;;;;;5059949;28;20021;-68
2020/12/31 12:15:22;;;;;;;24.35;14.88;;;8.70;58.40;;;;;;5056183;28;20040;-68
2020/12/31 12:17:49;;;;;;;31.25;15.20;;;8.70;58.30;;;;;;5074189;28;20024;-68
2020/12/31 12:20:16;;;;;;;22.10;13.73;;;8.70;58.20;;;;;;5058640;28;20032;-67
2020/12/31 12:22:42;;;;;;;22.30;12.52;;;8.70;58.20;;;;;;5073113;28;20053;-68
2020/12/31 12:25:08;;;;;;;24.08;13.93;;;8.80;58.30;;;;;;5074411;28;20036;-69
2020/12/31 12:27:35;;;;;;;27.90;14.55;;;8.80;58.10;;;;;;5074196;28;20020;-70
2020/12/31 12:30:02;;;;;;;24.02;15.27;;;8.80;57.90;;;;;;5056024;28;20531;-68
2020/12/31 12:32:27;;;;;;;28.70;14.23;;;8.80;57.80;;;;;;5057017;28;20414;-68
2020/12/31 12:34:53;;;;;;;19.73;12.35;;;8.80;57.70;;;;;;5054230;28;20060;-68
2020/12/31 12:37:22;;;;;;;20.00;12.35;;;8.80;57.90;;;;;;5054629;28;20053;-68
2020/12/31 12:39:48;;;;;;;22.85;14.50;;;8.80;58.00;;;;;;5074161;28;20042;-68
2020/12/31 12:42:14;;;;;;;32.03;14.88;;;8.90;57.80;;;;;;5073928;28;20555;-68
2020/12/31 12:44:40;;;;;;;23.42;13.13;;;8.90;57.70;;;;;;5073817;28;20028;-68
2020/12/31 12:47:06;;;;;;;27.48;13.85;;;8.90;57.90;;;;;;5063794;28;20048;-68